createdAt,value
2022-10-17T00:00:06.147Z,21.40
2022-10-17T00:03:08.805Z,21.40
2022-10-17T00:06:13.887Z,20.63
2022-10-17T00:09:16.029Z,21.10
2022-10-17T00:12:18.155Z,21.60
2022-10-17T00:15:21.063Z,21.10
2022-10-17T00:18:23.390Z,20.92
2022-10-17T00:21:26.357Z,21.40
2022-10-17T00:24:30.910Z,20.88
2022-10-17T00:27:41.666Z,21.67
2022-10-17T00:30:43.844Z,20.43
2022-10-17T00:33:46.894Z,20.23
2022-10-17T00:36:51.208Z,20.60
2022-10-17T00:39:54.447Z,21.73
2022-10-17T00:42:56.717Z,20.97
2022-10-17T00:45:58.961Z,20.93
2022-10-17T00:49:12.821Z,21.10
2022-10-17T00:52:18.790Z,19.60
2022-10-17T00:55:24.367Z,19.90
2022-10-17T00:58:29.475Z,20.30
2022-10-17T01:01:32.198Z,20.13
2022-10-17T01:04:36.786Z,20.88
2022-10-17T01:07:40.339Z,19.98
2022-10-17T01:10:57.814Z,20.17
2022-10-17T01:14:05.808Z,19.93
2022-10-17T01:17:42.922Z,20.67
2022-10-17T01:21:09.886Z,19.42
2022-10-17T01:24:38.250Z,19.27
2022-10-17T01:27:52.252Z,19.30
2022-10-17T01:31:14.200Z,19.87
2022-10-17T01:34:22.583Z,19.20
2022-10-17T01:37:31.759Z,20.63
2022-10-17T01:41:05.119Z,19.88
2022-10-17T01:44:20.776Z,18.52
2022-10-17T01:47:25.982Z,19.83
2022-10-17T01:50:33.670Z,19.63
2022-10-17T01:53:43.182Z,19.65
2022-10-17T01:56:46.715Z,19.15
2022-10-17T01:59:51.820Z,19.60
2022-10-17T02:03:00.267Z,21.73
2022-10-17T02:06:02.760Z,20.27
2022-10-17T02:09:17.838Z,19.05
2022-10-17T02:12:38.055Z,19.00
2022-10-17T02:15:48.751Z,17.77
2022-10-17T02:19:02.183Z,18.53
2022-10-17T02:22:18.169Z,18.60
2022-10-17T02:25:31.277Z,18.67
2022-10-17T02:28:42.456Z,18.63
2022-10-17T02:32:06.624Z,18.02
2022-10-17T02:35:11.285Z,18.50
2022-10-17T02:38:13.942Z,18.57
2022-10-17T02:41:19.145Z,21.02
2022-10-17T02:44:22.041Z,19.95
2022-10-17T02:47:28.313Z,19.25
2022-10-17T02:50:42.348Z,19.83
2022-10-17T02:53:52.403Z,19.17
2022-10-17T02:56:59.569Z,18.02
2022-10-17T03:00:02.497Z,18.15
2022-10-17T03:03:21.390Z,17.27
2022-10-17T03:06:23.501Z,17.53
2022-10-17T03:09:25.722Z,17.40
2022-10-17T03:12:28.167Z,18.27
2022-10-17T03:15:30.641Z,17.92
2022-10-17T03:18:32.935Z,17.25
2022-10-17T03:21:37.946Z,16.10
2022-10-17T03:24:41.962Z,16.63
2022-10-17T03:27:44.165Z,16.83
2022-10-17T03:30:46.394Z,17.23
2022-10-17T03:33:49.101Z,15.73
2022-10-17T03:36:51.336Z,16.63
2022-10-17T03:39:54.442Z,16.23
2022-10-17T03:42:57.118Z,15.55
2022-10-17T03:46:00.007Z,15.43
2022-10-17T03:49:02.270Z,14.68
2022-10-17T03:52:04.606Z,14.77
2022-10-17T03:55:07.270Z,16.03
2022-10-17T03:58:09.406Z,16.23
2022-10-17T04:01:14.794Z,15.63
2022-10-17T04:04:17.004Z,16.08
2022-10-17T04:07:20.276Z,16.87
2022-10-17T04:10:23.844Z,16.23
2022-10-17T04:13:27.082Z,15.88
2022-10-17T04:16:29.484Z,16.38
2022-10-17T04:19:35.862Z,15.50
2022-10-17T04:22:38.477Z,18.13
2022-10-17T04:25:40.685Z,17.50
2022-10-17T04:28:43.066Z,17.75
2022-10-17T04:31:46.266Z,16.80
2022-10-17T04:34:54.080Z,15.82
2022-10-17T04:37:58.165Z,15.80
2022-10-17T04:41:03.442Z,16.17
2022-10-17T04:44:06.035Z,16.40
2022-10-17T04:47:11.824Z,14.77
2022-10-17T04:50:14.655Z,15.63
2022-10-17T04:53:17.183Z,15.80
2022-10-17T04:56:21.896Z,15.80
2022-10-17T04:59:24.054Z,15.38
2022-10-17T05:02:35.283Z,14.05
2022-10-17T05:05:39.136Z,15.18
2022-10-17T05:08:42.041Z,15.40
2022-10-17T05:11:44.234Z,15.33
2022-10-17T05:14:47.488Z,15.90
2022-10-17T05:17:55.055Z,15.25
2022-10-17T05:20:57.790Z,16.35
2022-10-17T05:24:00.211Z,15.93
2022-10-17T05:27:02.418Z,15.93
2022-10-17T05:30:05.504Z,15.93
2022-10-17T05:33:09.647Z,15.85
2022-10-17T05:36:11.980Z,16.65
2022-10-17T05:39:19.542Z,16.53
2022-10-17T05:42:24.523Z,16.73
2022-10-17T05:45:27.736Z,17.40
2022-10-17T05:48:29.974Z,16.38
2022-10-17T05:51:33.929Z,15.93
2022-10-17T05:54:38.306Z,16.70
2022-10-17T05:57:40.557Z,17.33
2022-10-17T06:00:47.640Z,19.48
2022-10-17T06:03:50.053Z,21.08
2022-10-17T06:06:52.477Z,24.40
2022-10-17T06:09:54.600Z,23.07
2022-10-17T06:12:58.904Z,19.80
2022-10-17T06:16:01.762Z,17.55
2022-10-17T06:19:04.151Z,17.60
2022-10-17T06:22:07.060Z,16.27
2022-10-17T06:25:10.352Z,15.17
2022-10-17T06:28:12.927Z,15.77
2022-10-17T06:31:17.732Z,14.20
2022-10-17T06:34:21.178Z,13.27
2022-10-17T06:37:23.396Z,14.30
2022-10-17T06:40:25.875Z,13.40
2022-10-17T06:43:28.251Z,13.17
2022-10-17T06:46:48.879Z,12.32
2022-10-17T06:49:52.836Z,12.60
2022-10-17T06:53:00.959Z,12.07
2022-10-17T06:56:21.159Z,12.70
2022-10-17T06:59:34.589Z,12.37
2022-10-17T07:02:43.917Z,11.93
2022-10-17T07:05:52.305Z,11.90
2022-10-17T07:08:55.806Z,12.13
2022-10-17T07:11:58.315Z,11.80
2022-10-17T07:15:00.700Z,12.57
2022-10-17T07:18:03.386Z,12.15
2022-10-17T07:21:06.135Z,12.10
2022-10-17T07:24:08.412Z,12.90
2022-10-17T07:27:10.707Z,12.07
2022-10-17T07:30:14.124Z,12.10
2022-10-17T07:33:27.453Z,11.50
2022-10-17T07:36:29.682Z,12.23
2022-10-17T07:39:35.638Z,11.60
2022-10-17T07:45:41.984Z,12.17
2022-10-17T07:48:44.441Z,11.63
2022-10-17T07:51:48.172Z,12.25
2022-10-17T07:54:50.624Z,11.50
2022-10-17T07:57:52.884Z,11.50
2022-10-17T08:00:55.179Z,12.03
2022-10-17T08:03:57.356Z,12.10
2022-10-17T08:07:18.292Z,11.43
2022-10-17T08:10:27.946Z,10.82
2022-10-17T08:13:32.524Z,10.40
2022-10-17T08:16:34.655Z,10.63
2022-10-17T08:19:40.536Z,11.15
2022-10-17T08:22:43.036Z,10.70
2022-10-17T08:25:45.163Z,9.60
2022-10-17T08:28:48.167Z,10.50
2022-10-17T08:31:54.083Z,10.37
2022-10-17T08:35:01.239Z,9.95
2022-10-17T08:38:09.952Z,10.38
2022-10-17T08:41:40.617Z,10.07
2022-10-17T08:45:20.567Z,10.67
2022-10-17T08:48:26.528Z,10.33
2022-10-17T08:51:33.963Z,10.38
2022-10-17T08:54:46.096Z,10.50
2022-10-17T08:57:48.715Z,9.95
2022-10-17T09:01:01.376Z,10.10
2022-10-17T09:04:34.295Z,10.10
2022-10-17T09:07:48.387Z,10.02
2022-10-17T09:10:54.080Z,9.38
2022-10-17T09:14:05.394Z,9.73
2022-10-17T09:17:28.784Z,9.27
2022-10-17T09:20:34.606Z,9.33
2022-10-17T09:23:44.144Z,8.95
2022-10-17T09:26:47.018Z,9.55
2022-10-17T09:29:51.219Z,9.60
2022-10-17T09:32:53.964Z,9.87
2022-10-17T09:35:57.568Z,9.30
2022-10-17T09:39:06.014Z,9.40
2022-10-17T09:42:13.417Z,8.60
2022-10-17T09:45:26.030Z,8.90
2022-10-17T09:48:39.803Z,9.77
2022-10-17T09:51:42.047Z,8.20
2022-10-17T09:55:12.530Z,7.65
2022-10-17T09:58:15.826Z,8.38
2022-10-17T10:01:26.107Z,8.45
2022-10-17T10:04:30.344Z,7.53
2022-10-17T10:07:39.382Z,7.90
2022-10-17T10:10:46.217Z,7.25
2022-10-17T10:13:49.381Z,7.88
2022-10-17T10:16:53.999Z,7.25
2022-10-17T10:19:56.512Z,7.40
2022-10-17T10:23:15.426Z,7.53
2022-10-17T10:26:27.553Z,7.32
2022-10-17T10:29:41.745Z,6.85
2022-10-17T10:32:46.074Z,6.43
2022-10-17T10:36:03.504Z,6.47
2022-10-17T10:39:06.315Z,6.37
2022-10-17T10:42:18.984Z,6.10
2022-10-17T10:45:46.903Z,6.60
2022-10-17T10:49:00.920Z,6.00
2022-10-17T10:52:04.616Z,6.13
2022-10-17T10:55:20.261Z,9.07
2022-10-17T10:58:47.110Z,6.78
2022-10-17T11:01:56.669Z,5.35
2022-10-17T11:05:04.438Z,5.47
2022-10-17T11:08:13.233Z,5.47
2022-10-17T11:11:24.807Z,5.50
2022-10-17T11:14:40.089Z,5.00
2022-10-17T11:17:57.442Z,4.75
2022-10-17T11:21:05.593Z,5.00
2022-10-17T11:24:16.275Z,4.67
2022-10-17T11:27:18.615Z,4.40
2022-10-17T11:30:21.445Z,4.40
2022-10-17T11:33:46.455Z,4.20
2022-10-17T11:36:51.514Z,5.10
2022-10-17T11:40:04.290Z,6.30
2022-10-17T11:43:22.733Z,4.97
2022-10-17T11:46:27.949Z,4.35
2022-10-17T11:49:40.259Z,4.15
2022-10-17T11:52:57.076Z,4.03
2022-10-17T11:56:00.619Z,4.33
2022-10-17T11:59:27.208Z,4.40
2022-10-17T12:02:35.056Z,4.60
2022-10-17T12:05:51.021Z,4.45
2022-10-17T12:09:21.086Z,4.20
2022-10-17T12:12:32.589Z,4.10
2022-10-17T12:15:34.986Z,4.50
2022-10-17T12:18:37.211Z,4.15
2022-10-17T12:22:17.471Z,4.13
2022-10-17T12:25:23.330Z,4.15
2022-10-17T12:28:46.759Z,4.47
2022-10-17T12:31:49.902Z,4.17
2022-10-17T12:34:54.091Z,4.10
2022-10-17T12:37:58.686Z,5.00
2022-10-17T12:41:02.419Z,4.40
2022-10-17T12:44:15.078Z,4.70
2022-10-17T12:47:38.272Z,4.50
2022-10-17T12:51:17.710Z,7.97
2022-10-17T12:54:24.129Z,6.22
2022-10-17T12:58:01.148Z,4.70
2022-10-17T13:01:30.584Z,4.37
2022-10-17T13:04:37.389Z,4.47
2022-10-17T13:07:41.644Z,4.32
2022-10-17T13:10:47.124Z,4.82
2022-10-17T13:13:56.426Z,5.00
2022-10-17T13:17:01.191Z,4.20
2022-10-17T13:20:03.953Z,4.20
2022-10-17T13:23:06.196Z,4.97
2022-10-17T13:26:23.040Z,4.30
2022-10-17T13:29:26.067Z,4.38
2022-10-17T13:32:36.839Z,4.17
2022-10-17T13:35:59.355Z,4.63
2022-10-17T13:39:12.252Z,4.32
2022-10-17T13:42:29.638Z,4.70
2022-10-17T13:45:34.591Z,4.47
2022-10-17T13:48:37.661Z,4.47
2022-10-17T13:51:44.156Z,4.10
2022-10-17T13:54:50.716Z,3.95
2022-10-17T13:57:53.007Z,3.90
2022-10-17T14:00:55.532Z,4.30
2022-10-17T14:04:08.268Z,4.20
2022-10-17T14:07:41.548Z,4.13
2022-10-17T14:10:53.699Z,4.25
2022-10-17T14:13:56.589Z,4.47
2022-10-17T14:16:58.839Z,4.38
2022-10-17T14:20:40.419Z,3.90
2022-10-17T14:23:39.008Z,3.80
2022-10-17T14:26:55.609Z,3.95
2022-10-17T14:30:04.467Z,3.70
2022-10-17T14:33:13.051Z,3.45
2022-10-17T14:36:15.644Z,3.70
2022-10-17T14:39:20.989Z,3.60
2022-10-17T14:42:23.240Z,3.58
2022-10-17T14:45:34.363Z,4.00
2022-10-17T14:48:36.579Z,4.43
2022-10-17T14:51:50.393Z,3.63
2022-10-17T14:55:01.224Z,5.83
2022-10-17T14:58:20.112Z,4.57
2022-10-17T15:01:22.304Z,7.00
2022-10-17T15:04:24.465Z,5.35
2022-10-17T15:07:26.608Z,3.60
2022-10-17T15:10:33.941Z,3.37
2022-10-17T15:13:41.027Z,3.60
2022-10-17T15:16:46.417Z,3.40
2022-10-17T15:19:48.907Z,3.20
2022-10-17T15:22:51.049Z,3.53
2022-10-17T15:25:56.244Z,3.67
2022-10-17T15:28:59.561Z,3.70
2022-10-17T15:32:02.130Z,3.72
2022-10-17T15:35:04.473Z,3.92
2022-10-17T15:38:07.105Z,3.60
2022-10-17T15:41:11.195Z,3.73
2022-10-17T15:44:13.360Z,4.45
2022-10-17T15:47:24.462Z,4.95
2022-10-17T15:50:29.041Z,4.80
2022-10-17T15:53:31.222Z,4.27
2022-10-17T15:56:36.560Z,4.20
2022-10-17T15:59:38.678Z,4.40
2022-10-17T16:02:40.903Z,4.68
2022-10-17T16:05:43.023Z,6.47
2022-10-17T16:08:46.347Z,5.50
2022-10-17T16:11:48.477Z,5.33
2022-10-17T16:14:50.717Z,5.47
2022-10-17T16:17:54.191Z,6.03
2022-10-17T16:20:56.327Z,4.97
2022-10-17T16:23:59.458Z,4.70
2022-10-17T16:27:01.880Z,5.87
2022-10-17T16:30:05.850Z,5.93
2022-10-17T16:33:08.198Z,6.00
2022-10-17T16:36:10.522Z,5.63
2022-10-17T16:39:12.669Z,5.93
2022-10-17T16:42:14.788Z,6.30
2022-10-17T16:45:20.206Z,6.55
2022-10-17T16:48:24.941Z,7.53
2022-10-17T16:51:33.701Z,10.27
2022-10-17T16:54:35.895Z,9.87
2022-10-17T16:57:38.214Z,10.00
2022-10-17T17:00:40.432Z,8.20
2022-10-17T17:03:44.460Z,9.23
2022-10-17T17:06:46.691Z,9.10
2022-10-17T17:09:49.140Z,8.40
2022-10-17T17:12:51.426Z,8.40
2022-10-17T17:16:03.410Z,7.70
2022-10-17T17:19:11.877Z,9.57
2022-10-17T17:22:14.080Z,11.65
2022-10-17T17:25:16.672Z,14.33
2022-10-17T17:28:19.020Z,13.83
2022-10-17T17:31:24.432Z,14.25
2022-10-17T17:34:27.080Z,14.48
2022-10-17T17:37:30.054Z,13.85
2022-10-17T17:40:34.598Z,16.50
2022-10-17T17:43:37.255Z,14.77
2022-10-17T17:46:40.016Z,14.80
2022-10-17T17:49:42.480Z,14.90
2022-10-17T17:52:46.539Z,17.15
2022-10-17T17:55:48.781Z,16.03
2022-10-17T17:58:59.420Z,16.27
2022-10-17T18:02:13.284Z,16.38
2022-10-17T18:05:16.918Z,16.83
2022-10-17T18:08:19.707Z,17.67
2022-10-17T18:11:22.639Z,17.93
2022-10-17T18:14:25.812Z,17.20
2022-10-17T18:17:28.464Z,17.42
2022-10-17T18:20:32.203Z,16.10
2022-10-17T18:23:39.943Z,17.38
2022-10-17T18:26:42.833Z,16.63
2022-10-17T18:29:46.652Z,16.70
2022-10-17T18:32:48.832Z,17.45
2022-10-17T18:35:51.419Z,16.58
2022-10-17T18:38:55.092Z,17.38
2022-10-17T18:41:57.794Z,17.13
2022-10-17T18:45:00.436Z,18.00
2022-10-17T18:48:06.456Z,18.77
2022-10-17T18:51:09.176Z,18.02
2022-10-17T18:54:14.987Z,17.38
2022-10-17T18:57:17.548Z,18.33
2022-10-17T19:00:20.724Z,19.37
2022-10-17T19:03:23.398Z,17.38
2022-10-17T19:06:31.977Z,17.10
2022-10-17T19:09:34.736Z,33.15
2022-10-17T19:12:37.567Z,35.73
2022-10-17T19:15:40.219Z,61.90
2022-10-17T19:18:43.895Z,66.80
2022-10-17T19:21:48.011Z,37.75
2022-10-17T19:24:52.322Z,27.15
2022-10-17T19:27:55.318Z,32.27
2022-10-17T19:30:59.535Z,24.10
2022-10-17T19:34:02.817Z,22.08
2022-10-17T19:37:05.750Z,27.63
2022-10-17T19:40:08.820Z,34.90
2022-10-17T19:43:11.394Z,41.90
2022-10-17T19:46:16.098Z,32.37
2022-10-17T19:49:18.466Z,25.13
2022-10-17T19:52:20.799Z,25.17
2022-10-17T19:55:23.361Z,29.38
2022-10-17T19:58:27.043Z,32.10
2022-10-17T20:01:31.654Z,39.47
2022-10-17T20:04:33.985Z,39.97
2022-10-17T20:07:36.940Z,31.83
2022-10-17T20:10:39.626Z,34.33
2022-10-17T20:13:43.130Z,36.00
2022-10-17T20:16:50.471Z,21.07
2022-10-17T20:19:52.654Z,21.35
2022-10-17T20:22:54.892Z,20.92
2022-10-17T20:26:08.034Z,21.85
2022-10-17T20:29:21.457Z,21.47
2022-10-17T20:32:23.606Z,22.17
2022-10-17T20:35:25.839Z,26.40
2022-10-17T20:38:28.014Z,34.97
2022-10-17T20:41:30.671Z,27.67
2022-10-17T20:44:32.860Z,27.70
2022-10-17T20:47:46.000Z,26.40
2022-10-17T20:50:51.301Z,25.85
2022-10-17T20:53:53.621Z,27.45
2022-10-17T20:56:58.644Z,38.13
2022-10-17T21:00:04.711Z,88.83
2022-10-17T21:03:07.674Z,58.67
2022-10-17T21:06:10.373Z,37.33
2022-10-17T21:09:12.514Z,35.20
2022-10-17T21:12:21.783Z,38.20
2022-10-17T21:15:33.349Z,32.90
2022-10-17T21:18:35.558Z,30.37
2022-10-17T21:21:42.239Z,30.27
2022-10-17T21:24:44.370Z,42.92
2022-10-17T21:27:46.603Z,53.53
2022-10-17T21:30:48.764Z,37.07
2022-10-17T21:33:56.718Z,31.20
2022-10-17T21:36:58.874Z,29.60
2022-10-17T21:40:01.051Z,35.42
2022-10-17T21:43:03.218Z,75.05
2022-10-17T21:46:18.007Z,37.93
2022-10-17T21:49:22.100Z,30.63
2022-10-17T21:52:24.371Z,26.60
2022-10-17T21:55:26.535Z,26.50
2022-10-17T21:58:29.102Z,26.98
2022-10-17T22:01:33.805Z,37.77
2022-10-17T22:04:36.027Z,34.47
2022-10-17T22:07:38.128Z,36.25
2022-10-17T22:10:40.919Z,33.78
2022-10-17T22:13:43.432Z,26.67
2022-10-17T22:16:46.649Z,24.57
2022-10-17T22:19:48.920Z,26.90
2022-10-17T22:22:51.081Z,26.05
2022-10-17T22:25:54.745Z,26.15
2022-10-17T22:28:56.999Z,24.48
2022-10-17T22:31:59.171Z,25.03
2022-10-17T22:35:01.301Z,24.07
2022-10-17T22:38:03.522Z,25.05
2022-10-17T22:41:05.901Z,26.58
2022-10-17T22:44:08.160Z,29.50
2022-10-17T22:47:10.347Z,28.67
2022-10-17T22:50:12.507Z,25.13
2022-10-17T22:53:22.742Z,26.20
2022-10-17T22:56:24.923Z,23.92
2022-10-17T22:59:27.053Z,25.55
2022-10-17T23:02:29.635Z,24.83
2022-10-17T23:05:32.024Z,24.63
2022-10-17T23:08:34.248Z,25.13
2022-10-17T23:11:36.437Z,26.23
2022-10-17T23:14:38.743Z,26.05
2022-10-17T23:17:40.885Z,25.33
2022-10-17T23:20:42.998Z,23.37
2022-10-17T23:23:45.164Z,24.98
2022-10-17T23:26:47.385Z,24.23
2022-10-17T23:29:49.563Z,23.63
2022-10-17T23:32:51.710Z,25.10
2022-10-17T23:35:53.863Z,23.67
2022-10-17T23:38:58.461Z,26.85
2022-10-17T23:42:00.981Z,26.30
2022-10-17T23:45:05.325Z,25.27
2022-10-17T23:48:09.142Z,26.00
2022-10-17T23:51:12.646Z,23.67
2022-10-17T23:54:16.151Z,20.52
2022-10-17T23:57:19.958Z,21.33
